首页
METAR-TAF:

METAR-TAF

机场 :

Freeport, 巴哈马

纬度: 26-33N, 经度: 078-42W, 海拔: 2米

当前天气观测

该预报发布于40分钟前的16:00 UTC
风速11节,风向东转东南
温度 31°C
湿度 66%
气压 1019 hPa
能见度10公里或以上
少量云层高于2000英尺
多云层高于25000英尺

METAR: MYGF 211600Z 12011KT 9999 FEW020 BKN250 31/24 A3008

时间: 12:40 (16:40 UTC)

预报

该预报发布于5小时和40分钟前的11:00 UTC
预报有效从21日的 12点(UTC)到 22日的 12点(UTC)
风速11节,风向东转东南
能见度10公里或以上
少量云层高于2000英尺
散云层高于5000英尺
多云层高于20000英尺
附近有阵雨
几率 40% :
短暂存在
从 21日的 18点(UTC)到 21日的 24点(UTC)
能見度: 8000
散云层高于1500英尺, 积雨云.
多云层高于1800英尺
多云层高于15000英尺
雷暴, 雨,

TAF: MYGF 211100Z 2112/2212 12011KT 9999 VCSH FEW020 SCT050 BKN200 PROB40 TEMPO 2118/2124 8000 TSRA SCT015CB BKN018 BKN150

超过4000个机场的气象观测和天气预报(METAR&TAF报告)。

可查询的气象台以黄色和红色小点在地图上表示。

将鼠标移到小点上方,可查看气象台名称。

然后点击查看天气观测和预报。

如需切换地图:点击带黑十字的绿色按钮放大地图;点击带横线的绿色按钮缩小地图;或者点击绿色箭头查看邻近地区的地图。


METAR-TAF: